Reid, Mississippi
Current Conditions -  °F | °C
As of 2:53 AM on Friday 31 Oct 2014 (Local Time) from KTUP Reporting Station
Overcast Overcast  
Wind Chill: 12°   Ceiling: 6500
Heat Index: 12°   Visibility: 10mi
Dew Point:   Wind: 6mph
Humidity: 77%   Direction: 80°E
Pressure: 29.99"   Gusts: NA
Location:  33.9472°N, 89.1968°W
Report Text: KTUP 310753Z AUTO 08005KT 10SM OVC065 12/08 A2999 RMK AO2 SLP154 T01170078
Loading
Personal Weather Stations






























Interactive Weather Map
Tropical Storm Tracking
New forecast layout! Learn more

10-Day Weather Forecast

Advertisements
Track Severe Weather on mobile